createdAt,value
2023-03-02T00:04:33.736Z,99934.96
2023-03-02T00:09:38.131Z,99939.06
2023-03-02T00:14:43.141Z,99939.97
2023-03-02T00:19:47.749Z,99938.49
2023-03-02T00:34:54.634Z,99926.05
2023-03-02T00:40:02.360Z,99924.57
2023-03-02T00:45:11.138Z,99921.34
2023-03-02T00:50:18.756Z,99924.73
2023-03-02T00:55:26.658Z,99918.66
2023-03-02T01:00:35.825Z,99919.24
2023-03-02T01:05:43.344Z,99920.14
2023-03-02T01:10:52.163Z,99921.34
2023-03-02T01:16:08.243Z,99915.30
2023-03-02T01:21:17.399Z,99914.70
2023-03-02T01:26:24.877Z,99908.77
2023-03-02T01:31:32.887Z,99903.45
2023-03-02T01:36:40.309Z,99903.41
2023-03-02T01:41:48.156Z,99901.18
2023-03-02T01:46:55.627Z,99900.99
2023-03-02T01:52:05.503Z,99889.70
2023-03-02T01:57:13.761Z,99883.35
2023-03-02T02:02:21.266Z,99878.63
2023-03-02T02:07:29.853Z,99873.98
2023-03-02T02:12:37.913Z,99866.52
2023-03-02T02:17:45.648Z,99864.78
2023-03-02T02:23:05.282Z,99860.04
2023-03-02T02:28:21.301Z,99856.27
2023-03-02T02:33:29.838Z,99855.55
2023-03-02T02:38:38.853Z,99852.63
2023-03-02T02:43:46.251Z,99850.14
2023-03-02T02:48:53.894Z,99847.69
2023-03-02T02:54:04.497Z,99839.83
2023-03-02T02:59:19.222Z,99841.19
2023-03-02T03:04:30.178Z,99836.80
2023-03-02T03:09:37.885Z,99828.17
2023-03-02T03:14:45.934Z,99822.17
2023-03-02T03:19:53.497Z,99822.30
2023-03-02T03:28:32.495Z,99813.08
2023-03-02T03:33:40.217Z,99808.59
2023-03-02T03:38:48.970Z,99804.43
2023-03-02T03:43:56.968Z,99798.35
2023-03-02T03:49:05.032Z,99805.98
2023-03-02T03:54:13.226Z,99799.27
2023-03-02T03:59:23.315Z,99796.27
2023-03-02T04:04:34.487Z,99792.61
2023-03-02T04:09:42.766Z,99799.06
2023-03-02T04:14:50.989Z,99799.11
2023-03-02T04:19:59.873Z,99800.44
2023-03-02T04:25:10.563Z,99793.39
2023-03-02T04:30:21.013Z,99789.70
2023-03-02T04:35:29.324Z,99785.64
2023-03-02T04:40:37.156Z,99783.05
2023-03-02T04:45:44.954Z,99781.92
2023-03-02T04:50:52.880Z,99778.66
2023-03-02T04:56:02.597Z,99777.10
2023-03-02T05:01:10.887Z,99779.16
2023-03-02T05:06:18.795Z,99781.15
2023-03-02T05:11:26.298Z,99789.23
2023-03-02T05:16:35.949Z,99792.96
2023-03-02T05:21:44.606Z,99793.70
2023-03-02T05:26:54.266Z,99792.78
2023-03-02T05:32:02.282Z,99792.20
2023-03-02T05:37:09.878Z,99792.19
2023-03-02T05:42:18.253Z,99785.73
2023-03-02T05:47:25.644Z,99797.15
2023-03-02T05:52:34.449Z,99798.64
2023-03-02T05:57:42.544Z,99797.96
2023-03-02T06:02:50.407Z,99800.34
2023-03-02T06:07:58.638Z,99801.53
2023-03-02T06:13:06.773Z,99804.26
2023-03-02T06:18:14.856Z,99814.41
2023-03-02T06:23:22.945Z,99810.77
2023-03-02T06:28:32.835Z,99803.70
2023-03-02T06:33:43.411Z,99801.08
2023-03-02T06:38:51.594Z,99801.34
2023-03-02T06:43:59.296Z,99806.64
2023-03-02T06:49:07.602Z,99812.33
2023-03-02T06:54:16.439Z,99820.64
2023-03-02T06:59:24.264Z,99825.55
2023-03-02T07:04:31.726Z,99830.01
2023-03-02T07:09:39.135Z,99830.30
2023-03-02T07:14:46.793Z,99830.61
2023-03-02T07:19:54.453Z,99833.98
2023-03-02T07:29:50.634Z,99829.85
2023-03-02T07:34:55.023Z,99831.95
2023-03-02T07:40:00.825Z,99827.14
2023-03-02T07:45:07.200Z,99826.02
2023-03-02T07:50:13.124Z,99826.77
2023-03-02T07:55:17.607Z,99823.64
2023-03-02T08:00:23.450Z,99829.31
2023-03-02T08:05:28.066Z,99825.81
2023-03-02T08:10:34.034Z,99828.04
2023-03-02T08:15:38.653Z,99822.80
2023-03-02T08:20:42.613Z,99823.55
2023-03-02T08:28:38.429Z,99821.64
2023-03-02T08:33:47.268Z,99820.97
2023-03-02T08:38:55.875Z,99816.73
2023-03-02T08:44:04.214Z,99812.07
2023-03-02T08:49:11.741Z,99807.33
2023-03-02T08:54:19.825Z,99810.70
2023-03-02T08:59:28.675Z,99808.34
2023-03-02T09:04:37.440Z,99806.56
2023-03-02T09:09:44.630Z,99802.82
2023-03-02T09:14:50.387Z,99802.98
2023-03-02T09:20:00.691Z,99799.59
2023-03-02T09:25:09.637Z,99797.27
2023-03-02T09:30:19.242Z,99796.79
2023-03-02T09:35:27.448Z,99787.33
2023-03-02T09:40:41.988Z,99781.98
2023-03-02T09:46:14.205Z,99784.37
2023-03-02T09:51:32.839Z,99780.39
2023-03-02T09:56:45.282Z,99780.98
2023-03-02T10:02:01.613Z,99773.90
2023-03-02T10:07:16.050Z,99769.35
2023-03-02T10:12:45.526Z,99768.36
2023-03-02T10:18:02.554Z,99762.61
2023-03-02T10:23:25.258Z,99758.95
2023-03-02T10:28:39.634Z,99754.69
2023-03-02T10:33:47.288Z,99750.92
2023-03-02T10:38:56.190Z,99748.34
2023-03-02T10:44:07.797Z,99736.58
2023-03-02T10:49:30.872Z,99730.84
2023-03-02T10:54:38.548Z,99724.52
2023-03-02T10:59:48.474Z,99717.57
2023-03-02T11:04:59.389Z,99714.83
2023-03-02T11:10:19.637Z,99707.31
2023-03-02T11:15:30.209Z,99701.58
2023-03-02T11:20:41.746Z,99695.30
2023-03-02T11:25:53.669Z,99685.14
2023-03-02T11:31:04.485Z,99679.59
2023-03-02T11:36:17.495Z,99667.91
2023-03-02T11:41:31.360Z,99656.79
2023-03-02T11:46:39.447Z,99651.73
2023-03-02T11:51:58.947Z,99646.48
2023-03-02T11:57:07.178Z,99648.67
2023-03-02T12:02:16.766Z,99646.89
2023-03-02T12:07:28.290Z,99638.50
2023-03-02T12:12:49.910Z,99632.13
2023-03-02T12:17:58.218Z,99631.54
2023-03-02T12:23:24.234Z,99624.81
2023-03-02T12:28:36.219Z,99623.85
2023-03-02T12:33:50.081Z,99622.30
2023-03-02T12:39:11.738Z,99613.21
2023-03-02T12:44:39.122Z,99603.95
2023-03-02T12:49:49.847Z,99592.98
2023-03-02T12:55:07.031Z,99587.02
2023-03-02T13:00:21.694Z,99581.02
2023-03-02T13:05:33.633Z,99573.52
2023-03-02T13:10:45.529Z,99565.45
2023-03-02T13:15:56.680Z,99556.33
2023-03-02T13:21:06.219Z,99551.05
2023-03-02T13:26:29.285Z,99546.05
2023-03-02T13:31:38.416Z,99541.78
2023-03-02T13:36:45.898Z,99534.00
2023-03-02T13:41:58.997Z,99530.70
2023-03-02T13:47:06.870Z,99522.87
2023-03-02T13:52:23.688Z,99518.75
2023-03-02T13:57:34.150Z,99510.25
2023-03-02T14:02:42.852Z,99507.33
2023-03-02T14:07:50.547Z,99498.81
2023-03-02T14:13:03.573Z,99494.28
2023-03-02T14:18:25.221Z,99489.64
2023-03-02T14:23:32.838Z,99486.20
2023-03-02T14:28:40.657Z,99484.20
2023-03-02T14:33:48.545Z,99481.59
2023-03-02T14:38:58.708Z,99483.17
2023-03-02T14:44:07.044Z,99482.08
2023-03-02T14:49:14.543Z,99475.08
2023-03-02T14:54:23.382Z,99474.59
2023-03-02T14:59:31.192Z,99468.63
2023-03-02T15:04:38.722Z,99466.73
2023-03-02T15:09:46.808Z,99465.17
2023-03-02T15:14:54.114Z,99458.98
2023-03-02T15:20:01.738Z,99461.41
2023-03-02T15:25:10.368Z,99454.80
2023-03-02T15:30:19.259Z,99459.60
2023-03-02T15:35:27.430Z,99457.67
2023-03-02T15:40:35.523Z,99460.30
2023-03-02T15:45:47.845Z,99454.88
2023-03-02T15:51:01.720Z,99459.23
2023-03-02T15:56:11.394Z,99458.87
2023-03-02T16:01:19.338Z,99458.07
2023-03-02T16:06:27.969Z,99452.55
2023-03-02T16:11:35.959Z,99455.52
2023-03-02T16:16:43.638Z,99457.85
2023-03-02T16:21:51.322Z,99452.45
2023-03-02T16:26:59.058Z,99457.10
2023-03-02T16:32:09.213Z,99457.65
2023-03-02T16:37:16.847Z,99462.02
2023-03-02T16:42:24.559Z,99461.76
2023-03-02T16:47:32.575Z,99464.83
2023-03-02T16:52:40.335Z,99465.18
2023-03-02T16:57:48.253Z,99466.89
2023-03-02T17:02:56.118Z,99471.17
2023-03-02T17:08:05.451Z,99472.60
2023-03-02T17:13:15.710Z,99481.11
2023-03-02T17:18:23.116Z,99486.60
2023-03-02T17:23:31.634Z,99483.36
2023-03-02T17:28:39.492Z,99482.48
2023-03-02T17:33:47.075Z,99484.50
2023-03-02T17:38:54.811Z,99487.54
2023-03-02T17:44:02.576Z,99485.11
2023-03-02T17:49:10.346Z,99481.23
2023-03-02T17:54:18.212Z,99481.25
2023-03-02T17:59:25.566Z,99479.24
2023-03-02T18:04:33.211Z,99482.80
2023-03-02T18:09:40.675Z,99481.77
2023-03-02T18:14:48.290Z,99479.23
2023-03-02T18:19:56.402Z,99482.25
2023-03-02T18:25:03.995Z,99478.06
2023-03-02T18:30:14.230Z,99479.52
2023-03-02T18:35:22.222Z,99479.10
2023-03-02T18:40:30.699Z,99482.59
2023-03-02T18:45:38.608Z,99482.04
2023-03-02T18:50:47.182Z,99477.11
2023-03-02T18:55:57.285Z,99484.46
2023-03-02T19:01:05.722Z,99482.69
2023-03-02T19:06:13.880Z,99485.14
2023-03-02T19:11:21.334Z,99484.95
2023-03-02T19:16:29.693Z,99484.48
2023-03-02T19:21:37.257Z,99484.45
2023-03-02T19:26:45.016Z,99484.73
2023-03-02T19:31:52.544Z,99480.04
2023-03-02T19:37:00.367Z,99481.17
2023-03-02T19:42:08.496Z,99488.81
2023-03-02T19:47:15.969Z,99484.27
2023-03-02T19:52:23.730Z,99485.59
2023-03-02T19:57:32.859Z,99490.30
2023-03-02T20:02:41.240Z,99489.40
2023-03-02T20:07:48.650Z,99487.00
2023-03-02T20:12:56.125Z,99488.43
2023-03-02T20:18:04.036Z,99494.63
2023-03-02T20:23:11.534Z,99497.30
2023-03-02T20:28:22.758Z,99494.56
2023-03-02T20:33:33.435Z,99490.77
2023-03-02T20:38:47.044Z,99486.58
2023-03-02T20:43:55.029Z,99483.10
2023-03-02T20:49:02.741Z,99481.59
2023-03-02T20:54:11.015Z,99471.70
2023-03-02T21:09:08.936Z,99466.98
2023-03-02T21:14:17.053Z,99465.70
2023-03-02T21:19:25.962Z,99462.05
2023-03-02T21:24:34.357Z,99460.44
2023-03-02T21:29:41.998Z,99459.14
2023-03-02T21:34:49.279Z,99455.16
2023-03-02T21:39:54.903Z,99451.75
2023-03-02T21:45:03.441Z,99447.46
2023-03-02T21:50:15.502Z,99444.83
2023-03-02T21:55:24.027Z,99438.44
2023-03-02T22:00:34.587Z,99438.39
2023-03-02T22:05:42.481Z,99437.30
2023-03-02T22:10:51.855Z,99433.27
2023-03-02T22:16:07.880Z,99429.67
2023-03-02T22:21:34.832Z,99424.49
2023-03-02T22:26:45.064Z,99417.51
2023-03-02T22:31:54.618Z,99408.79
2023-03-02T22:37:11.088Z,99408.17
2023-03-02T22:42:20.518Z,99405.23
2023-03-02T22:47:28.818Z,99406.13
2023-03-02T22:52:43.233Z,99404.57
2023-03-02T22:57:50.702Z,99408.41
2023-03-02T23:02:59.179Z,99400.82
2023-03-02T23:08:21.881Z,99394.55
2023-03-02T23:13:39.326Z,99389.89
2023-03-02T23:18:46.089Z,99383.58
2023-03-02T23:23:53.882Z,99376.99
2023-03-02T23:29:01.752Z,99371.95
2023-03-02T23:34:09.544Z,99370.25
2023-03-02T23:39:17.858Z,99368.67
2023-03-02T23:44:25.695Z,99365.46
2023-03-02T23:49:33.523Z,99366.52
2023-03-02T23:54:42.518Z,99365.96
2023-03-02T23:59:50.026Z,99363.96
